sensor_id;sensor_type;location;lat;lon;timestamp;P1;durP1;ratioP1;P2;durP2;ratioP2
5807;SDS011;2930;42.678;23.312;2022-11-15T00:00:47;37.47;;;18.00;;
5807;SDS011;2930;42.678;23.312;2022-11-15T00:03:14;35.70;;;17.97;;
5807;SDS011;2930;42.678;23.312;2022-11-15T00:05:40;32.90;;;18.47;;
5807;SDS011;2930;42.678;23.312;2022-11-15T00:08:07;42.00;;;20.40;;
5807;SDS011;2930;42.678;23.312;2022-11-15T00:10:32;44.83;;;20.23;;
5807;SDS011;2930;42.678;23.312;2022-11-15T00:12:58;35.97;;;19.67;;
5807;SDS011;2930;42.678;23.312;2022-11-15T00:15:24;37.87;;;18.03;;
5807;SDS011;2930;42.678;23.312;2022-11-15T00:17:49;35.80;;;17.63;;
5807;SDS011;2930;42.678;23.312;2022-11-15T00:20:16;30.33;;;16.53;;
5807;SDS011;2930;42.678;23.312;2022-11-15T00:22:42;33.23;;;16.93;;
5807;SDS011;2930;42.678;23.312;2022-11-15T00:25:08;30.07;;;15.77;;
5807;SDS011;2930;42.678;23.312;2022-11-15T00:27:34;35.90;;;16.33;;
5807;SDS011;2930;42.678;23.312;2022-11-15T00:30:00;30.67;;;16.73;;
5807;SDS011;2930;42.678;23.312;2022-11-15T00:32:25;33.30;;;17.20;;
5807;SDS011;2930;42.678;23.312;2022-11-15T00:34:51;30.77;;;15.03;;
5807;SDS011;2930;42.678;23.312;2022-11-15T00:37:17;31.37;;;15.80;;
5807;SDS011;2930;42.678;23.312;2022-11-15T00:39:42;32.47;;;16.67;;
5807;SDS011;2930;42.678;23.312;2022-11-15T00:42:08;30.27;;;16.07;;
5807;SDS011;2930;42.678;23.312;2022-11-15T00:44:34;37.80;;;18.27;;
5807;SDS011;2930;42.678;23.312;2022-11-15T00:46:59;37.13;;;17.93;;
5807;SDS011;2930;42.678;23.312;2022-11-15T00:49:25;36.53;;;16.67;;
5807;SDS011;2930;42.678;23.312;2022-11-15T00:51:50;28.37;;;16.40;;
5807;SDS011;2930;42.678;23.312;2022-11-15T00:54:16;27.73;;;16.07;;
5807;SDS011;2930;42.678;23.312;2022-11-15T00:56:41;32.93;;;16.53;;
5807;SDS011;2930;42.678;23.312;2022-11-15T00:59:07;30.57;;;17.43;;
5807;SDS011;2930;42.678;23.312;2022-11-15T01:01:33;32.63;;;15.43;;
5807;SDS011;2930;42.678;23.312;2022-11-15T01:03:58;28.43;;;16.67;;
5807;SDS011;2930;42.678;23.312;2022-11-15T01:06:24;42.97;;;20.77;;
5807;SDS011;2930;42.678;23.312;2022-11-15T01:08:50;35.67;;;19.63;;
5807;SDS011;2930;42.678;23.312;2022-11-15T01:11:15;31.97;;;18.80;;
5807;SDS011;2930;42.678;23.312;2022-11-15T01:13:41;38.13;;;20.43;;
5807;SDS011;2930;42.678;23.312;2022-11-15T01:16:08;36.40;;;18.80;;
5807;SDS011;2930;42.678;23.312;2022-11-15T01:18:35;29.60;;;15.50;;
5807;SDS011;2930;42.678;23.312;2022-11-15T01:21:05;26.27;;;15.47;;
5807;SDS011;2930;42.678;23.312;2022-11-15T01:23:41;30.07;;;15.57;;
5807;SDS011;2930;42.678;23.312;2022-11-15T01:26:09;33.90;;;15.87;;
5807;SDS011;2930;42.678;23.312;2022-11-15T01:28:37;32.57;;;14.30;;
5807;SDS011;2930;42.678;23.312;2022-11-15T01:31:06;24.30;;;12.47;;
5807;SDS011;2930;42.678;23.312;2022-11-15T01:33:36;23.40;;;12.67;;
5807;SDS011;2930;42.678;23.312;2022-11-15T01:36:05;24.27;;;12.43;;
5807;SDS011;2930;42.678;23.312;2022-11-15T01:38:33;21.70;;;12.23;;
5807;SDS011;2930;42.678;23.312;2022-11-15T01:40:59;25.73;;;12.87;;
5807;SDS011;2930;42.678;23.312;2022-11-15T01:43:29;26.80;;;12.63;;
5807;SDS011;2930;42.678;23.312;2022-11-15T01:46:14;24.83;;;13.17;;
5807;SDS011;2930;42.678;23.312;2022-11-15T01:48:46;20.40;;;12.93;;
5807;SDS011;2930;42.678;23.312;2022-11-15T01:51:13;27.37;;;13.90;;
5807;SDS011;2930;42.678;23.312;2022-11-15T01:53:41;29.07;;;14.57;;
5807;SDS011;2930;42.678;23.312;2022-11-15T01:56:13;22.53;;;13.03;;
5807;SDS011;2930;42.678;23.312;2022-11-15T01:58:42;23.60;;;12.83;;
5807;SDS011;2930;42.678;23.312;2022-11-15T02:01:10;22.63;;;12.53;;
5807;SDS011;2930;42.678;23.312;2022-11-15T02:06:16;28.80;;;13.80;;
5807;SDS011;2930;42.678;23.312;2022-11-15T02:08:43;23.53;;;13.43;;
5807;SDS011;2930;42.678;23.312;2022-11-15T02:11:09;26.10;;;12.90;;
5807;SDS011;2930;42.678;23.312;2022-11-15T02:13:35;24.10;;;14.17;;
5807;SDS011;2930;42.678;23.312;2022-11-15T02:18:41;29.80;;;14.20;;
5807;SDS011;2930;42.678;23.312;2022-11-15T02:36:49;31.87;;;18.60;;
5807;SDS011;2930;42.678;23.312;2022-11-15T02:39:27;41.50;;;20.53;;
5807;SDS011;2930;42.678;23.312;2022-11-15T02:42:07;38.97;;;19.07;;
5807;SDS011;2930;42.678;23.312;2022-11-15T02:44:56;33.83;;;17.83;;
5807;SDS011;2930;42.678;23.312;2022-11-15T02:47:28;40.37;;;18.57;;
5807;SDS011;2930;42.678;23.312;2022-11-15T02:49:59;30.03;;;17.67;;
5807;SDS011;2930;42.678;23.312;2022-11-15T02:52:33;36.73;;;19.07;;
5807;SDS011;2930;42.678;23.312;2022-11-15T02:54:59;38.57;;;17.60;;
5807;SDS011;2930;42.678;23.312;2022-11-15T03:00:25;33.07;;;16.57;;
5807;SDS011;2930;42.678;23.312;2022-11-15T03:08:39;28.63;;;16.60;;
5807;SDS011;2930;42.678;23.312;2022-11-15T03:11:11;27.73;;;15.97;;
5807;SDS011;2930;42.678;23.312;2022-11-15T03:13:59;30.73;;;16.23;;
5807;SDS011;2930;42.678;23.312;2022-11-15T03:21:52;33.47;;;17.40;;
5807;SDS011;2930;42.678;23.312;2022-11-15T03:24:22;33.43;;;17.70;;
5807;SDS011;2930;42.678;23.312;2022-11-15T03:26:50;33.50;;;15.90;;
5807;SDS011;2930;42.678;23.312;2022-11-15T03:29:30;32.53;;;17.23;;
5807;SDS011;2930;42.678;23.312;2022-11-15T03:32:05;32.47;;;14.70;;
5807;SDS011;2930;42.678;23.312;2022-11-15T03:37:29;31.47;;;16.57;;
5807;SDS011;2930;42.678;23.312;2022-11-15T03:40:00;32.13;;;17.17;;
5807;SDS011;2930;42.678;23.312;2022-11-15T03:42:38;34.10;;;16.60;;
5807;SDS011;2930;42.678;23.312;2022-11-15T03:45:13;45.83;;;18.60;;
5807;SDS011;2930;42.678;23.312;2022-11-15T03:47:46;36.00;;;16.27;;
5807;SDS011;2930;42.678;23.312;2022-11-15T03:50:20;34.33;;;16.83;;
5807;SDS011;2930;42.678;23.312;2022-11-15T03:52:48;38.43;;;17.47;;
5807;SDS011;2930;42.678;23.312;2022-11-15T03:55:16;37.20;;;17.37;;
5807;SDS011;2930;42.678;23.312;2022-11-15T03:57:43;33.60;;;17.33;;
5807;SDS011;2930;42.678;23.312;2022-11-15T04:00:09;34.33;;;16.77;;
5807;SDS011;2930;42.678;23.312;2022-11-15T04:02:37;33.57;;;17.83;;
5807;SDS011;2930;42.678;23.312;2022-11-15T04:05:03;31.47;;;17.17;;
5807;SDS011;2930;42.678;23.312;2022-11-15T04:07:29;37.10;;;18.00;;
5807;SDS011;2930;42.678;23.312;2022-11-15T04:09:54;39.03;;;16.50;;
5807;SDS011;2930;42.678;23.312;2022-11-15T04:12:34;34.80;;;18.20;;
5807;SDS011;2930;42.678;23.312;2022-11-15T04:15:02;47.03;;;19.80;;
5807;SDS011;2930;42.678;23.312;2022-11-15T04:17:37;42.37;;;18.70;;
5807;SDS011;2930;42.678;23.312;2022-11-15T04:20:04;44.70;;;18.30;;
5807;SDS011;2930;42.678;23.312;2022-11-15T04:22:51;39.03;;;19.20;;
5807;SDS011;2930;42.678;23.312;2022-11-15T04:25:36;40.53;;;17.80;;
5807;SDS011;2930;42.678;23.312;2022-11-15T04:28:02;40.33;;;18.57;;
5807;SDS011;2930;42.678;23.312;2022-11-15T04:30:27;43.37;;;18.80;;
5807;SDS011;2930;42.678;23.312;2022-11-15T04:32:53;39.20;;;19.20;;
5807;SDS011;2930;42.678;23.312;2022-11-15T04:35:19;35.33;;;17.93;;
5807;SDS011;2930;42.678;23.312;2022-11-15T04:37:44;35.43;;;18.60;;
5807;SDS011;2930;42.678;23.312;2022-11-15T04:40:10;48.17;;;18.63;;
5807;SDS011;2930;42.678;23.312;2022-11-15T04:42:36;50.70;;;20.93;;
5807;SDS011;2930;42.678;23.312;2022-11-15T04:45:02;45.33;;;18.90;;
5807;SDS011;2930;42.678;23.312;2022-11-15T04:47:27;44.47;;;20.27;;
5807;SDS011;2930;42.678;23.312;2022-11-15T04:49:54;39.97;;;18.07;;
5807;SDS011;2930;42.678;23.312;2022-11-15T04:52:20;45.47;;;18.63;;
5807;SDS011;2930;42.678;23.312;2022-11-15T04:54:45;43.57;;;18.33;;
5807;SDS011;2930;42.678;23.312;2022-11-15T04:57:11;40.50;;;16.90;;
5807;SDS011;2930;42.678;23.312;2022-11-15T04:59:37;38.63;;;17.57;;
5807;SDS011;2930;42.678;23.312;2022-11-15T05:02:02;40.67;;;19.20;;
5807;SDS011;2930;42.678;23.312;2022-11-15T05:04:28;45.33;;;18.33;;
5807;SDS011;2930;42.678;23.312;2022-11-15T05:06:53;50.87;;;19.20;;
5807;SDS011;2930;42.678;23.312;2022-11-15T05:09:19;36.53;;;16.33;;
5807;SDS011;2930;42.678;23.312;2022-11-15T05:11:45;38.57;;;17.17;;
5807;SDS011;2930;42.678;23.312;2022-11-15T05:14:12;53.03;;;19.00;;
5807;SDS011;2930;42.678;23.312;2022-11-15T05:16:38;48.43;;;17.33;;
5807;SDS011;2930;42.678;23.312;2022-11-15T05:19:04;50.00;;;19.37;;
5807;SDS011;2930;42.678;23.312;2022-11-15T05:21:30;46.23;;;20.00;;
5807;SDS011;2930;42.678;23.312;2022-11-15T05:23:56;38.27;;;17.73;;
5807;SDS011;2930;42.678;23.312;2022-11-15T05:26:22;54.17;;;18.97;;
5807;SDS011;2930;42.678;23.312;2022-11-15T05:28:51;46.70;;;19.27;;
5807;SDS011;2930;42.678;23.312;2022-11-15T05:31:21;50.03;;;19.07;;
5807;SDS011;2930;42.678;23.312;2022-11-15T05:33:47;46.63;;;20.50;;
5807;SDS011;2930;42.678;23.312;2022-11-15T05:39:13;47.10;;;17.27;;
5807;SDS011;2930;42.678;23.312;2022-11-15T05:41:44;46.60;;;17.40;;
5807;SDS011;2930;42.678;23.312;2022-11-15T05:44:17;42.37;;;19.67;;
5807;SDS011;2930;42.678;23.312;2022-11-15T05:46:45;50.80;;;20.43;;
5807;SDS011;2930;42.678;23.312;2022-11-15T05:49:13;33.73;;;15.60;;
5807;SDS011;2930;42.678;23.312;2022-11-15T05:51:43;24.00;;;12.03;;
5807;SDS011;2930;42.678;23.312;2022-11-15T05:54:12;27.43;;;13.10;;
5807;SDS011;2930;42.678;23.312;2022-11-15T05:56:38;20.37;;;10.27;;
5807;SDS011;2930;42.678;23.312;2022-11-15T05:59:04;23.63;;;11.27;;
5807;SDS011;2930;42.678;23.312;2022-11-15T06:01:32;18.93;;;10.10;;
5807;SDS011;2930;42.678;23.312;2022-11-15T06:03:58;28.10;;;10.10;;
5807;SDS011;2930;42.678;23.312;2022-11-15T06:06:23;22.73;;;10.87;;
5807;SDS011;2930;42.678;23.312;2022-11-15T06:08:49;22.17;;;11.93;;
5807;SDS011;2930;42.678;23.312;2022-11-15T06:11:15;28.77;;;11.60;;
5807;SDS011;2930;42.678;23.312;2022-11-15T06:13:40;22.10;;;10.40;;
5807;SDS011;2930;42.678;23.312;2022-11-15T06:16:06;30.47;;;10.93;;
5807;SDS011;2930;42.678;23.312;2022-11-15T06:18:33;23.17;;;10.70;;
5807;SDS011;2930;42.678;23.312;2022-11-15T06:20:59;18.60;;;9.77;;
5807;SDS011;2930;42.678;23.312;2022-11-15T06:23:26;32.40;;;11.43;;
5807;SDS011;2930;42.678;23.312;2022-11-15T06:25:52;20.03;;;9.73;;
5807;SDS011;2930;42.678;23.312;2022-11-15T06:28:18;22.27;;;11.73;;
5807;SDS011;2930;42.678;23.312;2022-11-15T06:30:43;34.53;;;13.40;;
5807;SDS011;2930;42.678;23.312;2022-11-15T06:33:09;38.13;;;13.93;;
5807;SDS011;2930;42.678;23.312;2022-11-15T06:35:35;29.97;;;13.90;;
5807;SDS011;2930;42.678;23.312;2022-11-15T06:38:05;36.67;;;13.77;;
5807;SDS011;2930;42.678;23.312;2022-11-15T06:40:34;38.53;;;14.30;;
5807;SDS011;2930;42.678;23.312;2022-11-15T06:43:02;41.83;;;15.07;;
5807;SDS011;2930;42.678;23.312;2022-11-15T06:45:28;33.73;;;15.60;;
5807;SDS011;2930;42.678;23.312;2022-11-15T06:47:54;37.73;;;14.67;;
5807;SDS011;2930;42.678;23.312;2022-11-15T06:50:20;33.10;;;14.40;;
5807;SDS011;2930;42.678;23.312;2022-11-15T06:52:45;34.83;;;13.17;;
5807;SDS011;2930;42.678;23.312;2022-11-15T06:55:11;31.30;;;13.70;;
5807;SDS011;2930;42.678;23.312;2022-11-15T06:57:37;34.90;;;15.00;;
5807;SDS011;2930;42.678;23.312;2022-11-15T07:00:11;43.07;;;15.63;;
5807;SDS011;2930;42.678;23.312;2022-11-15T07:02:37;34.40;;;14.60;;
5807;SDS011;2930;42.678;23.312;2022-11-15T07:05:02;35.83;;;14.30;;
5807;SDS011;2930;42.678;23.312;2022-11-15T07:07:28;25.87;;;11.93;;
5807;SDS011;2930;42.678;23.312;2022-11-15T07:09:54;32.03;;;14.03;;
5807;SDS011;2930;42.678;23.312;2022-11-15T07:12:19;27.87;;;13.27;;
5807;SDS011;2930;42.678;23.312;2022-11-15T07:14:45;34.50;;;12.77;;
5807;SDS011;2930;42.678;23.312;2022-11-15T07:17:11;28.67;;;13.47;;
5807;SDS011;2930;42.678;23.312;2022-11-15T07:19:36;24.67;;;12.23;;
5807;SDS011;2930;42.678;23.312;2022-11-15T07:22:02;29.73;;;12.17;;
5807;SDS011;2930;42.678;23.312;2022-11-15T07:24:28;24.57;;;11.93;;
5807;SDS011;2930;42.678;23.312;2022-11-15T07:26:53;26.40;;;12.40;;
5807;SDS011;2930;42.678;23.312;2022-11-15T07:29:19;33.97;;;13.33;;
5807;SDS011;2930;42.678;23.312;2022-11-15T07:31:45;28.13;;;12.37;;
5807;SDS011;2930;42.678;23.312;2022-11-15T07:34:10;26.37;;;12.90;;
5807;SDS011;2930;42.678;23.312;2022-11-15T07:36:36;34.67;;;14.67;;
5807;SDS011;2930;42.678;23.312;2022-11-15T07:39:02;24.97;;;12.23;;
5807;SDS011;2930;42.678;23.312;2022-11-15T07:41:28;31.77;;;13.43;;
5807;SDS011;2930;42.678;23.312;2022-11-15T07:43:54;22.80;;;12.93;;
5807;SDS011;2930;42.678;23.312;2022-11-15T07:46:20;32.07;;;13.60;;
5807;SDS011;2930;42.678;23.312;2022-11-15T07:48:45;32.53;;;13.73;;
5807;SDS011;2930;42.678;23.312;2022-11-15T07:51:12;28.10;;;12.63;;
5807;SDS011;2930;42.678;23.312;2022-11-15T07:53:39;32.83;;;13.00;;
5807;SDS011;2930;42.678;23.312;2022-11-15T07:56:08;25.00;;;11.70;;
5807;SDS011;2930;42.678;23.312;2022-11-15T07:58:34;30.27;;;12.50;;
5807;SDS011;2930;42.678;23.312;2022-11-15T08:01:03;32.43;;;13.80;;
5807;SDS011;2930;42.678;23.312;2022-11-15T08:03:30;29.53;;;15.27;;
5807;SDS011;2930;42.678;23.312;2022-11-15T08:05:55;29.10;;;13.50;;
5807;SDS011;2930;42.678;23.312;2022-11-15T08:08:21;33.77;;;14.80;;
5807;SDS011;2930;42.678;23.312;2022-11-15T08:10:47;30.37;;;14.90;;
5807;SDS011;2930;42.678;23.312;2022-11-15T08:13:13;33.40;;;15.00;;
5807;SDS011;2930;42.678;23.312;2022-11-15T08:15:39;38.13;;;15.80;;
5807;SDS011;2930;42.678;23.312;2022-11-15T08:18:06;37.97;;;15.77;;
5807;SDS011;2930;42.678;23.312;2022-11-15T08:20:35;35.50;;;15.70;;
5807;SDS011;2930;42.678;23.312;2022-11-15T08:23:01;31.73;;;15.70;;
5807;SDS011;2930;42.678;23.312;2022-11-15T08:25:28;37.57;;;16.27;;
5807;SDS011;2930;42.678;23.312;2022-11-15T08:27:57;41.43;;;16.47;;
5807;SDS011;2930;42.678;23.312;2022-11-15T08:30:27;32.17;;;17.23;;
5807;SDS011;2930;42.678;23.312;2022-11-15T08:32:53;37.67;;;16.90;;
5807;SDS011;2930;42.678;23.312;2022-11-15T08:35:22;33.40;;;16.07;;
5807;SDS011;2930;42.678;23.312;2022-11-15T08:37:49;42.53;;;18.80;;
5807;SDS011;2930;42.678;23.312;2022-11-15T08:40:15;42.67;;;18.80;;
5807;SDS011;2930;42.678;23.312;2022-11-15T08:42:41;44.43;;;19.30;;
5807;SDS011;2930;42.678;23.312;2022-11-15T08:45:07;36.57;;;17.47;;
5807;SDS011;2930;42.678;23.312;2022-11-15T08:47:33;36.47;;;17.33;;
5807;SDS011;2930;42.678;23.312;2022-11-15T08:49:59;43.80;;;17.33;;
5807;SDS011;2930;42.678;23.312;2022-11-15T08:52:25;37.03;;;18.53;;
5807;SDS011;2930;42.678;23.312;2022-11-15T08:54:51;41.37;;;16.93;;
5807;SDS011;2930;42.678;23.312;2022-11-15T08:57:17;35.57;;;15.83;;
5807;SDS011;2930;42.678;23.312;2022-11-15T08:59:42;33.60;;;16.50;;
5807;SDS011;2930;42.678;23.312;2022-11-15T09:02:12;34.57;;;16.60;;
5807;SDS011;2930;42.678;23.312;2022-11-15T09:04:39;36.67;;;16.10;;
5807;SDS011;2930;42.678;23.312;2022-11-15T09:07:06;32.83;;;15.03;;
5807;SDS011;2930;42.678;23.312;2022-11-15T09:09:32;31.70;;;16.20;;
5807;SDS011;2930;42.678;23.312;2022-11-15T09:11:58;41.00;;;17.53;;
5807;SDS011;2930;42.678;23.312;2022-11-15T09:14:23;30.07;;;14.50;;
5807;SDS011;2930;42.678;23.312;2022-11-15T09:16:49;32.63;;;16.73;;
5807;SDS011;2930;42.678;23.312;2022-11-15T09:19:15;32.57;;;16.10;;
5807;SDS011;2930;42.678;23.312;2022-11-15T09:21:40;35.73;;;17.93;;
5807;SDS011;2930;42.678;23.312;2022-11-15T09:24:06;38.33;;;17.23;;
5807;SDS011;2930;42.678;23.312;2022-11-15T09:26:32;34.77;;;16.30;;
5807;SDS011;2930;42.678;23.312;2022-11-15T09:28:57;34.77;;;17.37;;
5807;SDS011;2930;42.678;23.312;2022-11-15T09:31:29;37.23;;;17.07;;
5807;SDS011;2930;42.678;23.312;2022-11-15T09:33:55;43.67;;;18.77;;
5807;SDS011;2930;42.678;23.312;2022-11-15T09:36:21;41.77;;;19.43;;
5807;SDS011;2930;42.678;23.312;2022-11-15T09:38:46;36.57;;;17.53;;
5807;SDS011;2930;42.678;23.312;2022-11-15T09:49:20;38.93;;;18.90;;
5807;SDS011;2930;42.678;23.312;2022-11-15T09:51:47;37.13;;;18.30;;
5807;SDS011;2930;42.678;23.312;2022-11-15T09:57:16;45.43;;;19.27;;
5807;SDS011;2930;42.678;23.312;2022-11-15T09:59:58;47.97;;;21.77;;
5807;SDS011;2930;42.678;23.312;2022-11-15T10:05:41;47.83;;;19.77;;
5807;SDS011;2930;42.678;23.312;2022-11-15T10:11:03;46.57;;;18.77;;
5807;SDS011;2930;42.678;23.312;2022-11-15T10:13:35;42.57;;;19.90;;
5807;SDS011;2930;42.678;23.312;2022-11-15T10:24:37;43.60;;;20.30;;
5807;SDS011;2930;42.678;23.312;2022-11-15T10:27:11;46.40;;;22.67;;
5807;SDS011;2930;42.678;23.312;2022-11-15T10:29:42;42.95;;;20.15;;
5807;SDS011;2930;42.678;23.312;2022-11-15T10:32:10;49.80;;;22.52;;
5807;SDS011;2930;42.678;23.312;2022-11-15T10:34:37;54.08;;;22.30;;
5807;SDS011;2930;42.678;23.312;2022-11-15T10:37:03;57.83;;;21.92;;
5807;SDS011;2930;42.678;23.312;2022-11-15T10:39:29;47.83;;;23.52;;
5807;SDS011;2930;42.678;23.312;2022-11-15T10:41:55;43.80;;;21.67;;
5807;SDS011;2930;42.678;23.312;2022-11-15T10:44:25;46.45;;;23.40;;
5807;SDS011;2930;42.678;23.312;2022-11-15T10:51:49;41.55;;;23.63;;
5807;SDS011;2930;42.678;23.312;2022-11-15T10:57:12;46.70;;;24.73;;
5807;SDS011;2930;42.678;23.312;2022-11-15T10:59:49;44.75;;;24.30;;
5807;SDS011;2930;42.678;23.312;2022-11-15T11:02:37;44.53;;;23.77;;
5807;SDS011;2930;42.678;23.312;2022-11-15T11:05:27;49.13;;;26.10;;
5807;SDS011;2930;42.678;23.312;2022-11-15T11:07:57;54.50;;;28.75;;
5807;SDS011;2930;42.678;23.312;2022-11-15T11:10:53;42.88;;;24.83;;
5807;SDS011;2930;42.678;23.312;2022-11-15T11:13:29;44.60;;;25.80;;
5807;SDS011;2930;42.678;23.312;2022-11-15T11:19:17;48.65;;;28.48;;
5807;SDS011;2930;42.678;23.312;2022-11-15T11:27:54;55.97;;;30.20;;
5807;SDS011;2930;42.678;23.312;2022-11-15T11:30:58;54.53;;;29.73;;
5807;SDS011;2930;42.678;23.312;2022-11-15T11:33:32;50.72;;;28.20;;
5807;SDS011;2930;42.678;23.312;2022-11-15T11:36:25;57.92;;;31.80;;
5807;SDS011;2930;42.678;23.312;2022-11-15T11:39:21;56.83;;;32.13;;
5807;SDS011;2930;42.678;23.312;2022-11-15T11:47:23;61.38;;;31.60;;
5807;SDS011;2930;42.678;23.312;2022-11-15T11:49:56;59.92;;;30.02;;
5807;SDS011;2930;42.678;23.312;2022-11-15T11:52:30;47.88;;;28.33;;
5807;SDS011;2930;42.678;23.312;2022-11-15T11:55:02;55.45;;;29.92;;
5807;SDS011;2930;42.678;23.312;2022-11-15T12:00:37;49.55;;;27.85;;
5807;SDS011;2930;42.678;23.312;2022-11-15T12:06:02;45.65;;;27.35;;
5807;SDS011;2930;42.678;23.312;2022-11-15T12:08:39;46.75;;;27.63;;
5807;SDS011;2930;42.678;23.312;2022-11-15T12:11:11;49.70;;;29.25;;
5807;SDS011;2930;42.678;23.312;2022-11-15T12:13:50;41.33;;;24.83;;
5807;SDS011;2930;42.678;23.312;2022-11-15T12:16:28;52.50;;;27.50;;
5807;SDS011;2930;42.678;23.312;2022-11-15T12:18:58;41.83;;;25.88;;
5807;SDS011;2930;42.678;23.312;2022-11-15T12:24:37;44.63;;;24.23;;
5807;SDS011;2930;42.678;23.312;2022-11-15T12:27:24;38.40;;;23.45;;
5807;SDS011;2930;42.678;23.312;2022-11-15T12:30:36;43.40;;;23.25;;
5807;SDS011;2930;42.678;23.312;2022-11-15T12:33:28;37.03;;;21.13;;
5807;SDS011;2930;42.678;23.312;2022-11-15T12:35:58;38.65;;;23.42;;
5807;SDS011;2930;42.678;23.312;2022-11-15T12:41:27;36.22;;;23.27;;
5807;SDS011;2930;42.678;23.312;2022-11-15T12:43:58;39.53;;;23.67;;
5807;SDS011;2930;42.678;23.312;2022-11-15T12:46:58;42.15;;;23.05;;
5807;SDS011;2930;42.678;23.312;2022-11-15T13:02:31;38.58;;;23.83;;
5807;SDS011;2930;42.678;23.312;2022-11-15T13:17:53;39.35;;;24.42;;
5807;SDS011;2930;42.678;23.312;2022-11-15T13:20:25;43.22;;;24.35;;
5807;SDS011;2930;42.678;23.312;2022-11-15T13:28:01;46.17;;;24.88;;
5807;SDS011;2930;42.678;23.312;2022-11-15T13:30:39;38.95;;;24.40;;
5807;SDS011;2930;42.678;23.312;2022-11-15T13:33:14;43.60;;;24.58;;
5807;SDS011;2930;42.678;23.312;2022-11-15T13:35:41;51.30;;;25.55;;
5807;SDS011;2930;42.678;23.312;2022-11-15T13:38:30;40.53;;;23.92;;
5807;SDS011;2930;42.678;23.312;2022-11-15T13:40:58;44.50;;;23.63;;
5807;SDS011;2930;42.678;23.312;2022-11-15T13:48:42;38.03;;;23.92;;
5807;SDS011;2930;42.678;23.312;2022-11-15T13:51:14;46.92;;;26.00;;
5807;SDS011;2930;42.678;23.312;2022-11-15T13:53:46;42.70;;;23.85;;
5807;SDS011;2930;42.678;23.312;2022-11-15T13:56:16;39.67;;;22.88;;
5807;SDS011;2930;42.678;23.312;2022-11-15T13:58:43;36.40;;;23.95;;
5807;SDS011;2930;42.678;23.312;2022-11-15T14:01:13;45.75;;;25.08;;
5807;SDS011;2930;42.678;23.312;2022-11-15T14:03:46;38.35;;;23.17;;
5807;SDS011;2930;42.678;23.312;2022-11-15T14:06:15;39.22;;;23.80;;
5807;SDS011;2930;42.678;23.312;2022-11-15T14:11:34;39.47;;;23.20;;
5807;SDS011;2930;42.678;23.312;2022-11-15T14:16:36;39.22;;;22.42;;
5807;SDS011;2930;42.678;23.312;2022-11-15T14:19:03;41.50;;;23.73;;
5807;SDS011;2930;42.678;23.312;2022-11-15T14:21:30;42.17;;;23.90;;
5807;SDS011;2930;42.678;23.312;2022-11-15T14:24:18;44.08;;;22.50;;
5807;SDS011;2930;42.678;23.312;2022-11-15T14:26:46;44.00;;;23.52;;
5807;SDS011;2930;42.678;23.312;2022-11-15T14:29:23;44.90;;;23.85;;
5807;SDS011;2930;42.678;23.312;2022-11-15T14:31:53;41.45;;;23.25;;
5807;SDS011;2930;42.678;23.312;2022-11-15T14:34:31;44.83;;;24.70;;
5807;SDS011;2930;42.678;23.312;2022-11-15T14:36:57;50.20;;;26.27;;
5807;SDS011;2930;42.678;23.312;2022-11-15T14:39:23;47.58;;;24.02;;
5807;SDS011;2930;42.678;23.312;2022-11-15T14:41:50;46.38;;;24.75;;
5807;SDS011;2930;42.678;23.312;2022-11-15T14:44:16;38.45;;;22.88;;
5807;SDS011;2930;42.678;23.312;2022-11-15T14:46:43;46.50;;;24.98;;
5807;SDS011;2930;42.678;23.312;2022-11-15T14:49:09;45.97;;;25.30;;
5807;SDS011;2930;42.678;23.312;2022-11-15T14:51:35;43.17;;;23.55;;
5807;SDS011;2930;42.678;23.312;2022-11-15T14:54:00;55.47;;;25.17;;
5807;SDS011;2930;42.678;23.312;2022-11-15T14:56:26;50.67;;;26.08;;
5807;SDS011;2930;42.678;23.312;2022-11-15T14:58:52;52.70;;;26.08;;
5807;SDS011;2930;42.678;23.312;2022-11-15T15:01:23;54.13;;;24.75;;
5807;SDS011;2930;42.678;23.312;2022-11-15T15:03:50;45.55;;;23.65;;
5807;SDS011;2930;42.678;23.312;2022-11-15T15:06:17;55.80;;;22.17;;
5807;SDS011;2930;42.678;23.312;2022-11-15T15:08:44;46.88;;;22.75;;
5807;SDS011;2930;42.678;23.312;2022-11-15T15:11:13;40.17;;;22.40;;
5807;SDS011;2930;42.678;23.312;2022-11-15T15:13:41;43.55;;;22.05;;
5807;SDS011;2930;42.678;23.312;2022-11-15T15:16:07;42.95;;;21.77;;
5807;SDS011;2930;42.678;23.312;2022-11-15T15:18:33;42.72;;;21.83;;
5807;SDS011;2930;42.678;23.312;2022-11-15T15:20:59;49.90;;;22.17;;
5807;SDS011;2930;42.678;23.312;2022-11-15T15:23:28;45.92;;;22.52;;
5807;SDS011;2930;42.678;23.312;2022-11-15T15:25:56;41.17;;;21.20;;
5807;SDS011;2930;42.678;23.312;2022-11-15T15:28:23;39.80;;;21.23;;
5807;SDS011;2930;42.678;23.312;2022-11-15T15:30:48;41.28;;;22.08;;
5807;SDS011;2930;42.678;23.312;2022-11-15T15:33:14;36.67;;;20.45;;
5807;SDS011;2930;42.678;23.312;2022-11-15T15:35:40;48.70;;;22.83;;
5807;SDS011;2930;42.678;23.312;2022-11-15T15:38:08;45.13;;;22.70;;
5807;SDS011;2930;42.678;23.312;2022-11-15T15:40:37;47.83;;;22.02;;
5807;SDS011;2930;42.678;23.312;2022-11-15T15:43:02;45.25;;;23.38;;
5807;SDS011;2930;42.678;23.312;2022-11-15T15:45:28;44.00;;;22.77;;
5807;SDS011;2930;42.678;23.312;2022-11-15T15:47:54;41.92;;;20.42;;
5807;SDS011;2930;42.678;23.312;2022-11-15T15:50:28;45.58;;;21.60;;
5807;SDS011;2930;42.678;23.312;2022-11-15T15:52:55;48.70;;;20.88;;
5807;SDS011;2930;42.678;23.312;2022-11-15T15:55:23;40.95;;;20.38;;
5807;SDS011;2930;42.678;23.312;2022-11-15T15:57:49;41.03;;;21.40;;
5807;SDS011;2930;42.678;23.312;2022-11-15T16:00:16;41.95;;;20.77;;
5807;SDS011;2930;42.678;23.312;2022-11-15T16:02:42;38.95;;;18.83;;
5807;SDS011;2930;42.678;23.312;2022-11-15T16:05:09;42.30;;;20.73;;
5807;SDS011;2930;42.678;23.312;2022-11-15T16:07:35;40.88;;;20.92;;
5807;SDS011;2930;42.678;23.312;2022-11-15T16:10:02;44.53;;;20.83;;
5807;SDS011;2930;42.678;23.312;2022-11-15T16:12:41;37.55;;;20.10;;
5807;SDS011;2930;42.678;23.312;2022-11-15T16:15:07;41.63;;;20.48;;
5807;SDS011;2930;42.678;23.312;2022-11-15T16:17:34;41.30;;;19.02;;
5807;SDS011;2930;42.678;23.312;2022-11-15T16:20:03;50.43;;;21.37;;
5807;SDS011;2930;42.678;23.312;2022-11-15T16:22:29;42.35;;;20.80;;
5807;SDS011;2930;42.678;23.312;2022-11-15T16:24:55;45.07;;;20.37;;
5807;SDS011;2930;42.678;23.312;2022-11-15T16:27:21;39.00;;;18.48;;
5807;SDS011;2930;42.678;23.312;2022-11-15T16:29:47;34.58;;;18.58;;
5807;SDS011;2930;42.678;23.312;2022-11-15T16:32:13;33.45;;;18.50;;
5807;SDS011;2930;42.678;23.312;2022-11-15T16:34:40;36.07;;;18.67;;
5807;SDS011;2930;42.678;23.312;2022-11-15T16:37:08;37.67;;;19.50;;
5807;SDS011;2930;42.678;23.312;2022-11-15T16:39:43;42.58;;;18.67;;
5807;SDS011;2930;42.678;23.312;2022-11-15T16:42:09;32.08;;;17.77;;
5807;SDS011;2930;42.678;23.312;2022-11-15T16:44:34;35.75;;;18.58;;
5807;SDS011;2930;42.678;23.312;2022-11-15T16:47:00;39.10;;;19.80;;
5807;SDS011;2930;42.678;23.312;2022-11-15T16:49:26;38.20;;;18.30;;
5807;SDS011;2930;42.678;23.312;2022-11-15T16:51:52;35.97;;;19.93;;
5807;SDS011;2930;42.678;23.312;2022-11-15T16:54:17;43.90;;;20.90;;
5807;SDS011;2930;42.678;23.312;2022-11-15T16:56:43;48.43;;;21.13;;
5807;SDS011;2930;42.678;23.312;2022-11-15T16:59:11;39.60;;;21.20;;
5807;SDS011;2930;42.678;23.312;2022-11-15T17:01:41;38.87;;;20.87;;
5807;SDS011;2930;42.678;23.312;2022-11-15T17:04:17;38.40;;;19.17;;
5807;SDS011;2930;42.678;23.312;2022-11-15T17:06:45;43.47;;;21.50;;
5807;SDS011;2930;42.678;23.312;2022-11-15T17:09:16;38.40;;;20.87;;